Weather at Hervey Bay Airport

Public forecast

Using degrees Celsius for public forecast. Weather courtesy of forecast.io.

Closest aviation weather report (METAR) to Hervey Bay Airport

Closest report is Sunshine Coast Airport, 77.2 nm (143.0 km) S.

2024/05/23 00:00 (retrieved 39 minutes ago)

YBSU 230000Z AUTO 20014KT 9999 // SCT046 21/13 Q1024 RF000/0000

Closest aviation forecast (TAF) to Hervey Bay Airport

Forecast is more than 6 hours old.

Closest forecast is Touho Airport, 735.5 nm (1,362.2 km) ENE.

2024/05/22 18:00 Ammendment (retrieved 7 hours ago)

TAF AMD NWWU 221833Z 2218/2318 CNL